Weather at Jorge Chávez International Airport

Public forecast

Using degrees Celsius for public forecast. Weather courtesy of forecast.io.

Current aviation weather report (METAR) for Jorge Chávez International Airport

Retrieved 2021/05/06 07:00 UTC (6 minutes ago):

SPJC 060700Z 31004KT 6000 OVC012 18/16 Q1015 NOSIG RMK PP000

Closest aviation forecast (TAF) to Jorge Chávez International Airport

Retrieved 2021/05/06 06:33 UTC (33 minutes ago):

TAF SPJC 060500Z 0606/0706 21004KT 8000 OVC010 TX21/0619Z TN16/0611Z BECMG 0608/0611 3000 BR OVC006 TEMPO 0611/0614 1500 OVC002 BECMG 0615/0617 29010KT 8000 NSW BKN007 BECMG 0620/0622 18010KT BKN012